Terminal Aerodrome Forecast
Issued by NWS

Home | Current Version | Previous Version | Text Only | Print | Product List | Glossary On
Versions: 1 2 3 4 5 6 7 8 9 10 11 12 13 14
000
FTUS46 KMTR 091135
TAFSJC
TAF
KSJC 091135Z 0912/1012 13005KT P6SM VCSH SCT030 OVC050
     FM091800 13006KT P6SM VCSH SCT018 BKN025 OVC040
     FM100600 13009KT P6SM -SHRA SCT012 BKN020 OVC035
     FM100900 14014G21KT P6SM -RA BKN012 OVC020=

USA.gov is the U.S. government's official web portal to all federal, state and local government web resources and services.